sensor_id;sensor_type;location;lat;lon;timestamp;P1;durP1;ratioP1;P2;durP2;ratioP2
5257;SDS011;2651;51.594;9.928;2022-12-29T00:00:27;1.90;;;1.80;;
5257;SDS011;2651;51.594;9.928;2022-12-29T00:01:29;2.55;;;1.60;;
5257;SDS011;2651;51.594;9.928;2022-12-29T00:02:32;1.88;;;1.77;;
5257;SDS011;2651;51.594;9.928;2022-12-29T00:03:33;1.70;;;1.60;;
5257;SDS011;2651;51.594;9.928;2022-12-29T00:04:35;1.90;;;1.80;;
5257;SDS011;2651;51.594;9.928;2022-12-29T00:05:37;1.92;;;1.83;;
5257;SDS011;2651;51.594;9.928;2022-12-29T00:06:38;2.40;;;2.10;;
5257;SDS011;2651;51.594;9.928;2022-12-29T00:07:40;2.05;;;1.95;;
5257;SDS011;2651;51.594;9.928;2022-12-29T00:08:42;1.85;;;1.75;;
5257;SDS011;2651;51.594;9.928;2022-12-29T00:09:43;1.63;;;1.52;;
5257;SDS011;2651;51.594;9.928;2022-12-29T00:10:45;1.50;;;1.50;;
5257;SDS011;2651;51.594;9.928;2022-12-29T00:11:47;1.85;;;1.55;;
5257;SDS011;2651;51.594;9.928;2022-12-29T00:12:51;1.60;;;1.50;;
5257;SDS011;2651;51.594;9.928;2022-12-29T00:14:11;1.23;;;1.20;;
5257;SDS011;2651;51.594;9.928;2022-12-29T00:15:31;3.08;;;1.73;;
5257;SDS011;2651;51.594;9.928;2022-12-29T00:16:43;2.08;;;1.73;;
5257;SDS011;2651;51.594;9.928;2022-12-29T00:17:46;1.65;;;1.50;;
5257;SDS011;2651;51.594;9.928;2022-12-29T00:18:47;6.35;;;1.60;;
5257;SDS011;2651;51.594;9.928;2022-12-29T00:19:49;1.92;;;1.83;;
5257;SDS011;2651;51.594;9.928;2022-12-29T00:21:12;3.92;;;1.50;;
5257;SDS011;2651;51.594;9.928;2022-12-29T00:22:34;1.45;;;1.35;;
5257;SDS011;2651;51.594;9.928;2022-12-29T00:23:54;2.28;;;1.80;;
5257;SDS011;2651;51.594;9.928;2022-12-29T00:25:28;3.03;;;1.77;;
5257;SDS011;2651;51.594;9.928;2022-12-29T00:26:57;2.25;;;1.50;;
5257;SDS011;2651;51.594;9.928;2022-12-29T00:28:28;3.92;;;1.55;;
5257;SDS011;2651;51.594;9.928;2022-12-29T00:29:49;6.35;;;1.60;;
5257;SDS011;2651;51.594;9.928;2022-12-29T00:31:11;3.00;;;1.48;;
5257;SDS011;2651;51.594;9.928;2022-12-29T00:32:32;1.40;;;1.30;;
5257;SDS011;2651;51.594;9.928;2022-12-29T00:33:53;1.80;;;1.42;;
5257;SDS011;2651;51.594;9.928;2022-12-29T00:35:18;4.53;;;1.95;;
5257;SDS011;2651;51.594;9.928;2022-12-29T00:36:35;2.13;;;1.58;;
5257;SDS011;2651;51.594;9.928;2022-12-29T00:37:40;1.60;;;1.50;;
5257;SDS011;2651;51.594;9.928;2022-12-29T00:39:09;1.80;;;1.70;;
5257;SDS011;2651;51.594;9.928;2022-12-29T00:40:32;2.10;;;2.00;;
5257;SDS011;2651;51.594;9.928;2022-12-29T00:41:52;7.28;;;1.75;;
5257;SDS011;2651;51.594;9.928;2022-12-29T00:43:12;1.77;;;1.40;;
5257;SDS011;2651;51.594;9.928;2022-12-29T00:44:33;2.03;;;1.83;;
5257;SDS011;2651;51.594;9.928;2022-12-29T00:45:34;2.83;;;1.80;;
5257;SDS011;2651;51.594;9.928;2022-12-29T00:46:36;2.05;;;1.85;;
5257;SDS011;2651;51.594;9.928;2022-12-29T00:47:39;1.73;;;1.55;;
5257;SDS011;2651;51.594;9.928;2022-12-29T00:48:41;1.55;;;1.45;;
5257;SDS011;2651;51.594;9.928;2022-12-29T00:50:01;3.45;;;1.55;;
5257;SDS011;2651;51.594;9.928;2022-12-29T00:51:03;2.10;;;1.85;;
5257;SDS011;2651;51.594;9.928;2022-12-29T00:52:06;2.20;;;2.00;;
5257;SDS011;2651;51.594;9.928;2022-12-29T00:53:09;2.50;;;1.80;;
5257;SDS011;2651;51.594;9.928;2022-12-29T00:54:11;3.38;;;1.90;;
5257;SDS011;2651;51.594;9.928;2022-12-29T00:55:14;1.67;;;1.55;;
5257;SDS011;2651;51.594;9.928;2022-12-29T00:56:16;1.70;;;1.60;;
5257;SDS011;2651;51.594;9.928;2022-12-29T00:57:18;1.75;;;1.65;;
5257;SDS011;2651;51.594;9.928;2022-12-29T00:58:19;6.22;;;1.73;;
5257;SDS011;2651;51.594;9.928;2022-12-29T00:59:21;1.85;;;1.70;;
5257;SDS011;2651;51.594;9.928;2022-12-29T01:00:25;4.05;;;1.35;;
5257;SDS011;2651;51.594;9.928;2022-12-29T01:01:26;2.17;;;1.98;;
5257;SDS011;2651;51.594;9.928;2022-12-29T01:02:28;1.80;;;1.70;;
5257;SDS011;2651;51.594;9.928;2022-12-29T01:03:30;1.80;;;1.70;;
5257;SDS011;2651;51.594;9.928;2022-12-29T01:04:33;6.38;;;2.63;;
5257;SDS011;2651;51.594;9.928;2022-12-29T01:05:37;1.80;;;1.70;;
5257;SDS011;2651;51.594;9.928;2022-12-29T01:06:39;2.63;;;1.90;;
5257;SDS011;2651;51.594;9.928;2022-12-29T01:07:42;2.28;;;1.90;;
5257;SDS011;2651;51.594;9.928;2022-12-29T01:08:43;1.85;;;1.75;;
5257;SDS011;2651;51.594;9.928;2022-12-29T01:09:45;1.67;;;1.58;;
5257;SDS011;2651;51.594;9.928;2022-12-29T01:11:07;2.22;;;1.70;;
5257;SDS011;2651;51.594;9.928;2022-12-29T01:12:10;2.08;;;1.88;;
5257;SDS011;2651;51.594;9.928;2022-12-29T01:13:12;1.60;;;1.50;;
5257;SDS011;2651;51.594;9.928;2022-12-29T01:14:13;3.28;;;2.38;;
5257;SDS011;2651;51.594;9.928;2022-12-29T01:15:15;2.50;;;2.30;;
5257;SDS011;2651;51.594;9.928;2022-12-29T01:16:17;2.95;;;2.10;;
5257;SDS011;2651;51.594;9.928;2022-12-29T01:17:18;2.25;;;1.85;;
5257;SDS011;2651;51.594;9.928;2022-12-29T01:18:20;1.92;;;1.83;;
5257;SDS011;2651;51.594;9.928;2022-12-29T01:19:23;2.13;;;1.83;;
5257;SDS011;2651;51.594;9.928;2022-12-29T01:20:25;1.77;;;1.67;;
5257;SDS011;2651;51.594;9.928;2022-12-29T01:21:28;3.67;;;2.05;;
5257;SDS011;2651;51.594;9.928;2022-12-29T01:22:30;3.83;;;2.05;;
5257;SDS011;2651;51.594;9.928;2022-12-29T01:23:32;2.08;;;1.98;;
5257;SDS011;2651;51.594;9.928;2022-12-29T01:24:34;1.88;;;1.77;;
5257;SDS011;2651;51.594;9.928;2022-12-29T01:25:36;3.50;;;2.10;;
5257;SDS011;2651;51.594;9.928;2022-12-29T01:26:38;2.10;;;1.85;;
5257;SDS011;2651;51.594;9.928;2022-12-29T01:27:39;2.35;;;2.10;;
5257;SDS011;2651;51.594;9.928;2022-12-29T01:28:41;2.15;;;2.05;;
5257;SDS011;2651;51.594;9.928;2022-12-29T01:29:43;2.95;;;2.10;;
5257;SDS011;2651;51.594;9.928;2022-12-29T01:30:44;1.70;;;1.60;;
5257;SDS011;2651;51.594;9.928;2022-12-29T01:31:46;1.95;;;1.85;;
5257;SDS011;2651;51.594;9.928;2022-12-29T01:32:48;1.80;;;1.70;;
5257;SDS011;2651;51.594;9.928;2022-12-29T01:33:49;2.17;;;1.98;;
5257;SDS011;2651;51.594;9.928;2022-12-29T01:34:51;2.00;;;1.90;;
5257;SDS011;2651;51.594;9.928;2022-12-29T01:35:53;1.77;;;1.67;;
5257;SDS011;2651;51.594;9.928;2022-12-29T01:36:54;2.13;;;1.83;;
5257;SDS011;2651;51.594;9.928;2022-12-29T01:37:56;1.92;;;1.80;;
5257;SDS011;2651;51.594;9.928;2022-12-29T01:38:58;3.10;;;1.95;;
5257;SDS011;2651;51.594;9.928;2022-12-29T01:39:59;4.32;;;1.92;;
5257;SDS011;2651;51.594;9.928;2022-12-29T01:41:01;2.85;;;2.22;;
5257;SDS011;2651;51.594;9.928;2022-12-29T01:42:03;2.20;;;1.50;;
5257;SDS011;2651;51.594;9.928;2022-12-29T01:43:07;1.83;;;1.70;;
5257;SDS011;2651;51.594;9.928;2022-12-29T01:45:50;2.15;;;1.73;;
5257;SDS011;2651;51.594;9.928;2022-12-29T01:46:54;2.15;;;2.05;;
5257;SDS011;2651;51.594;9.928;2022-12-29T01:47:58;1.90;;;1.75;;
5257;SDS011;2651;51.594;9.928;2022-12-29T01:49:16;4.13;;;1.65;;
5257;SDS011;2651;51.594;9.928;2022-12-29T01:50:29;1.63;;;1.52;;
5257;SDS011;2651;51.594;9.928;2022-12-29T01:51:35;2.15;;;1.95;;
5257;SDS011;2651;51.594;9.928;2022-12-29T01:52:44;1.85;;;1.75;;
5257;SDS011;2651;51.594;9.928;2022-12-29T01:53:58;2.58;;;2.10;;
5257;SDS011;2651;51.594;9.928;2022-12-29T01:55:03;1.80;;;1.70;;
5257;SDS011;2651;51.594;9.928;2022-12-29T01:56:07;2.17;;;1.60;;
5257;SDS011;2651;51.594;9.928;2022-12-29T01:57:15;2.67;;;1.80;;
5257;SDS011;2651;51.594;9.928;2022-12-29T01:58:21;3.17;;;1.85;;
5257;SDS011;2651;51.594;9.928;2022-12-29T01:59:27;2.05;;;1.73;;
5257;SDS011;2651;51.594;9.928;2022-12-29T02:00:32;1.73;;;1.63;;
5257;SDS011;2651;51.594;9.928;2022-12-29T02:01:34;3.83;;;2.05;;
5257;SDS011;2651;51.594;9.928;2022-12-29T02:02:36;1.85;;;1.52;;
5257;SDS011;2651;51.594;9.928;2022-12-29T02:03:38;1.65;;;1.55;;
5257;SDS011;2651;51.594;9.928;2022-12-29T02:04:41;3.30;;;1.52;;
5257;SDS011;2651;51.594;9.928;2022-12-29T02:07:08;2.13;;;1.95;;
5257;SDS011;2651;51.594;9.928;2022-12-29T02:08:15;1.70;;;1.60;;
5257;SDS011;2651;51.594;9.928;2022-12-29T02:09:18;2.67;;;1.80;;
5257;SDS011;2651;51.594;9.928;2022-12-29T02:10:20;2.95;;;2.45;;
5257;SDS011;2651;51.594;9.928;2022-12-29T02:11:25;2.25;;;1.67;;
5257;SDS011;2651;51.594;9.928;2022-12-29T02:12:29;1.60;;;1.60;;
5257;SDS011;2651;51.594;9.928;2022-12-29T02:13:31;2.00;;;1.85;;
5257;SDS011;2651;51.594;9.928;2022-12-29T02:14:34;2.05;;;1.95;;
5257;SDS011;2651;51.594;9.928;2022-12-29T02:15:41;5.15;;;1.88;;
5257;SDS011;2651;51.594;9.928;2022-12-29T02:17:13;1.38;;;1.27;;
5257;SDS011;2651;51.594;9.928;2022-12-29T02:18:37;3.40;;;1.95;;
5257;SDS011;2651;51.594;9.928;2022-12-29T02:21:06;1.63;;;1.52;;
5257;SDS011;2651;51.594;9.928;2022-12-29T02:24:19;2.22;;;2.13;;
5257;SDS011;2651;51.594;9.928;2022-12-29T02:30:12;1.58;;;1.50;;
5257;SDS011;2651;51.594;9.928;2022-12-29T02:31:27;1.95;;;1.85;;
5257;SDS011;2651;51.594;9.928;2022-12-29T02:34:37;2.38;;;1.80;;
5257;SDS011;2651;51.594;9.928;2022-12-29T02:39:58;1.52;;;1.40;;
5257;SDS011;2651;51.594;9.928;2022-12-29T02:42:59;2.05;;;1.95;;
5257;SDS011;2651;51.594;9.928;2022-12-29T02:45:34;2.60;;;1.60;;
5257;SDS011;2651;51.594;9.928;2022-12-29T02:46:43;1.80;;;1.70;;
5257;SDS011;2651;51.594;9.928;2022-12-29T02:49:45;2.35;;;1.45;;
5257;SDS011;2651;51.594;9.928;2022-12-29T02:51:06;7.47;;;1.50;;
5257;SDS011;2651;51.594;9.928;2022-12-29T02:52:14;1.70;;;1.58;;
5257;SDS011;2651;51.594;9.928;2022-12-29T02:53:18;1.75;;;1.63;;
5257;SDS011;2651;51.594;9.928;2022-12-29T02:54:41;1.77;;;1.67;;
5257;SDS011;2651;51.594;9.928;2022-12-29T02:55:49;1.73;;;1.45;;
5257;SDS011;2651;51.594;9.928;2022-12-29T02:56:52;3.33;;;1.30;;
5257;SDS011;2651;51.594;9.928;2022-12-29T02:59:17;1.60;;;1.50;;
5257;SDS011;2651;51.594;9.928;2022-12-29T03:00:19;1.60;;;1.50;;
5257;SDS011;2651;51.594;9.928;2022-12-29T03:02:54;1.90;;;1.80;;
5257;SDS011;2651;51.594;9.928;2022-12-29T03:04:03;3.70;;;1.90;;
5257;SDS011;2651;51.594;9.928;2022-12-29T03:05:41;2.95;;;1.48;;
5257;SDS011;2651;51.594;9.928;2022-12-29T03:07:09;2.08;;;1.60;;
5257;SDS011;2651;51.594;9.928;2022-12-29T03:09:51;1.35;;;1.35;;
5257;SDS011;2651;51.594;9.928;2022-12-29T03:11:27;8.32;;;1.55;;
5257;SDS011;2651;51.594;9.928;2022-12-29T03:12:56;1.50;;;1.40;;
5257;SDS011;2651;51.594;9.928;2022-12-29T03:14:27;1.40;;;1.40;;
5257;SDS011;2651;51.594;9.928;2022-12-29T03:16:06;2.78;;;1.92;;
5257;SDS011;2651;51.594;9.928;2022-12-29T03:17:35;1.98;;;1.88;;
5257;SDS011;2651;51.594;9.928;2022-12-29T03:18:47;2.65;;;1.50;;
5257;SDS011;2651;51.594;9.928;2022-12-29T03:20:05;1.90;;;1.80;;
5257;SDS011;2651;51.594;9.928;2022-12-29T03:22:44;11.35;;;1.55;;
5257;SDS011;2651;51.594;9.928;2022-12-29T03:23:50;3.42;;;1.25;;
5257;SDS011;2651;51.594;9.928;2022-12-29T03:24:53;1.55;;;1.45;;
5257;SDS011;2651;51.594;9.928;2022-12-29T03:26:02;1.17;;;1.17;;
5257;SDS011;2651;51.594;9.928;2022-12-29T03:27:10;2.35;;;1.30;;
5257;SDS011;2651;51.594;9.928;2022-12-29T03:28:19;1.90;;;1.40;;
5257;SDS011;2651;51.594;9.928;2022-12-29T03:29:24;2.25;;;1.50;;
5257;SDS011;2651;51.594;9.928;2022-12-29T03:30:29;2.28;;;1.10;;
5257;SDS011;2651;51.594;9.928;2022-12-29T03:31:33;1.80;;;1.40;;
5257;SDS011;2651;51.594;9.928;2022-12-29T03:32:40;1.27;;;1.27;;
5257;SDS011;2651;51.594;9.928;2022-12-29T03:33:46;1.40;;;1.30;;
5257;SDS011;2651;51.594;9.928;2022-12-29T03:34:50;1.52;;;1.40;;
5257;SDS011;2651;51.594;9.928;2022-12-29T03:35:52;1.30;;;1.20;;
5257;SDS011;2651;51.594;9.928;2022-12-29T03:37:00;1.20;;;1.05;;
5257;SDS011;2651;51.594;9.928;2022-12-29T03:38:09;2.45;;;1.42;;
5257;SDS011;2651;51.594;9.928;2022-12-29T03:39:18;1.48;;;1.38;;
5257;SDS011;2651;51.594;9.928;2022-12-29T03:40:24;1.20;;;1.20;;
5257;SDS011;2651;51.594;9.928;2022-12-29T03:41:28;1.02;;;1.02;;
5257;SDS011;2651;51.594;9.928;2022-12-29T03:42:33;1.20;;;1.20;;
5257;SDS011;2651;51.594;9.928;2022-12-29T03:43:40;1.80;;;1.42;;
5257;SDS011;2651;51.594;9.928;2022-12-29T03:44:43;1.25;;;1.15;;
5257;SDS011;2651;51.594;9.928;2022-12-29T03:45:45;1.80;;;1.13;;
5257;SDS011;2651;51.594;9.928;2022-12-29T03:46:47;1.50;;;1.40;;
5257;SDS011;2651;51.594;9.928;2022-12-29T03:47:49;2.15;;;1.20;;
5257;SDS011;2651;51.594;9.928;2022-12-29T03:48:52;1.30;;;1.20;;
5257;SDS011;2651;51.594;9.928;2022-12-29T03:49:53;1.30;;;1.20;;
5257;SDS011;2651;51.594;9.928;2022-12-29T03:50:55;1.55;;;1.20;;
5257;SDS011;2651;51.594;9.928;2022-12-29T03:51:56;1.58;;;1.40;;
5257;SDS011;2651;51.594;9.928;2022-12-29T03:52:58;4.40;;;1.10;;
5257;SDS011;2651;51.594;9.928;2022-12-29T03:54:00;1.88;;;1.15;;
5257;SDS011;2651;51.594;9.928;2022-12-29T03:55:02;1.40;;;1.30;;
5257;SDS011;2651;51.594;9.928;2022-12-29T03:56:04;2.33;;;1.30;;
5257;SDS011;2651;51.594;9.928;2022-12-29T03:57:06;1.55;;;1.42;;
5257;SDS011;2651;51.594;9.928;2022-12-29T03:58:07;1.40;;;1.10;;
5257;SDS011;2651;51.594;9.928;2022-12-29T03:59:09;1.23;;;1.10;;
5257;SDS011;2651;51.594;9.928;2022-12-29T04:00:11;1.33;;;1.10;;
5257;SDS011;2651;51.594;9.928;2022-12-29T04:01:13;1.20;;;1.10;;
5257;SDS011;2651;51.594;9.928;2022-12-29T04:02:15;1.00;;;1.00;;
5257;SDS011;2651;51.594;9.928;2022-12-29T04:03:18;1.25;;;1.15;;
5257;SDS011;2651;51.594;9.928;2022-12-29T04:04:20;1.20;;;1.20;;
5257;SDS011;2651;51.594;9.928;2022-12-29T04:05:22;5.60;;;1.60;;
5257;SDS011;2651;51.594;9.928;2022-12-29T04:06:24;1.70;;;1.00;;
5257;SDS011;2651;51.594;9.928;2022-12-29T04:07:26;1.83;;;1.25;;
5257;SDS011;2651;51.594;9.928;2022-12-29T04:08:27;0.95;;;0.95;;
5257;SDS011;2651;51.594;9.928;2022-12-29T04:09:29;2.53;;;1.35;;
5257;SDS011;2651;51.594;9.928;2022-12-29T04:10:32;1.15;;;1.05;;
5257;SDS011;2651;51.594;9.928;2022-12-29T04:11:34;1.20;;;1.10;;
5257;SDS011;2651;51.594;9.928;2022-12-29T04:12:36;3.65;;;1.17;;
5257;SDS011;2651;51.594;9.928;2022-12-29T04:13:37;1.95;;;1.27;;
5257;SDS011;2651;51.594;9.928;2022-12-29T04:14:42;1.90;;;1.20;;
5257;SDS011;2651;51.594;9.928;2022-12-29T04:15:43;0.82;;;0.82;;
5257;SDS011;2651;51.594;9.928;2022-12-29T04:16:46;1.75;;;1.08;;
5257;SDS011;2651;51.594;9.928;2022-12-29T04:17:47;1.20;;;1.10;;
5257;SDS011;2651;51.594;9.928;2022-12-29T04:18:49;1.52;;;1.20;;
5257;SDS011;2651;51.594;9.928;2022-12-29T04:19:51;1.02;;;1.00;;
5257;SDS011;2651;51.594;9.928;2022-12-29T04:20:52;1.42;;;0.95;;
5257;SDS011;2651;51.594;9.928;2022-12-29T04:22:07;1.15;;;1.10;;
5257;SDS011;2651;51.594;9.928;2022-12-29T04:23:09;0.95;;;0.95;;
5257;SDS011;2651;51.594;9.928;2022-12-29T04:24:11;7.05;;;1.17;;
5257;SDS011;2651;51.594;9.928;2022-12-29T04:25:14;2.55;;;1.00;;
5257;SDS011;2651;51.594;9.928;2022-12-29T04:26:15;0.95;;;0.85;;
5257;SDS011;2651;51.594;9.928;2022-12-29T04:27:17;5.80;;;1.10;;
5257;SDS011;2651;51.594;9.928;2022-12-29T04:28:19;2.63;;;0.95;;
5257;SDS011;2651;51.594;9.928;2022-12-29T04:29:21;0.95;;;0.95;;
5257;SDS011;2651;51.594;9.928;2022-12-29T04:30:23;1.73;;;0.90;;
5257;SDS011;2651;51.594;9.928;2022-12-29T04:31:24;0.80;;;0.80;;
5257;SDS011;2651;51.594;9.928;2022-12-29T04:32:26;1.02;;;1.02;;
5257;SDS011;2651;51.594;9.928;2022-12-29T04:33:28;0.90;;;0.80;;
5257;SDS011;2651;51.594;9.928;2022-12-29T04:34:30;1.10;;;1.10;;
5257;SDS011;2651;51.594;9.928;2022-12-29T04:35:31;1.35;;;0.90;;
5257;SDS011;2651;51.594;9.928;2022-12-29T04:36:36;1.25;;;0.90;;
5257;SDS011;2651;51.594;9.928;2022-12-29T04:37:38;2.75;;;1.00;;
5257;SDS011;2651;51.594;9.928;2022-12-29T04:38:40;1.00;;;1.00;;
5257;SDS011;2651;51.594;9.928;2022-12-29T04:39:42;1.23;;;0.85;;
5257;SDS011;2651;51.594;9.928;2022-12-29T04:40:44;1.15;;;1.00;;
5257;SDS011;2651;51.594;9.928;2022-12-29T04:41:46;0.90;;;0.90;;
5257;SDS011;2651;51.594;9.928;2022-12-29T04:42:48;0.80;;;0.80;;
5257;SDS011;2651;51.594;9.928;2022-12-29T04:43:50;0.93;;;0.93;;
5257;SDS011;2651;51.594;9.928;2022-12-29T04:44:51;2.95;;;1.00;;
5257;SDS011;2651;51.594;9.928;2022-12-29T04:45:53;1.73;;;0.90;;
5257;SDS011;2651;51.594;9.928;2022-12-29T04:46:55;1.35;;;1.25;;
5257;SDS011;2651;51.594;9.928;2022-12-29T04:47:57;1.33;;;1.15;;
5257;SDS011;2651;51.594;9.928;2022-12-29T04:48:58;1.13;;;1.00;;
5257;SDS011;2651;51.594;9.928;2022-12-29T04:50:01;1.40;;;1.27;;
5257;SDS011;2651;51.594;9.928;2022-12-29T04:51:04;1.30;;;1.00;;
5257;SDS011;2651;51.594;9.928;2022-12-29T04:52:06;0.93;;;0.93;;
5257;SDS011;2651;51.594;9.928;2022-12-29T04:53:09;1.05;;;0.80;;
5257;SDS011;2651;51.594;9.928;2022-12-29T04:54:11;1.00;;;0.95;;
5257;SDS011;2651;51.594;9.928;2022-12-29T04:55:13;1.25;;;1.10;;
5257;SDS011;2651;51.594;9.928;2022-12-29T04:56:14;1.30;;;1.20;;
5257;SDS011;2651;51.594;9.928;2022-12-29T04:57:18;3.40;;;0.98;;
5257;SDS011;2651;51.594;9.928;2022-12-29T04:58:20;0.73;;;0.73;;
5257;SDS011;2651;51.594;9.928;2022-12-29T04:59:23;0.88;;;0.80;;
5257;SDS011;2651;51.594;9.928;2022-12-29T05:00:25;0.90;;;0.90;;
5257;SDS011;2651;51.594;9.928;2022-12-29T05:01:27;2.28;;;0.93;;
5257;SDS011;2651;51.594;9.928;2022-12-29T05:02:28;1.15;;;1.15;;
5257;SDS011;2651;51.594;9.928;2022-12-29T05:03:30;0.82;;;0.82;;
5257;SDS011;2651;51.594;9.928;2022-12-29T05:04:33;2.15;;;0.82;;
5257;SDS011;2651;51.594;9.928;2022-12-29T05:05:34;1.92;;;1.08;;
5257;SDS011;2651;51.594;9.928;2022-12-29T05:06:36;0.77;;;0.77;;
5257;SDS011;2651;51.594;9.928;2022-12-29T05:07:38;0.60;;;0.60;;
5257;SDS011;2651;51.594;9.928;2022-12-29T05:08:40;0.93;;;0.60;;
5257;SDS011;2651;51.594;9.928;2022-12-29T05:09:42;1.17;;;1.10;;
5257;SDS011;2651;51.594;9.928;2022-12-29T05:10:44;0.70;;;0.70;;
5257;SDS011;2651;51.594;9.928;2022-12-29T05:11:46;1.25;;;0.65;;
5257;SDS011;2651;51.594;9.928;2022-12-29T05:12:48;0.77;;;0.73;;
5257;SDS011;2651;51.594;9.928;2022-12-29T05:13:50;0.75;;;0.75;;
5257;SDS011;2651;51.594;9.928;2022-12-29T05:14:52;0.85;;;0.77;;
5257;SDS011;2651;51.594;9.928;2022-12-29T05:15:54;0.90;;;0.90;;
5257;SDS011;2651;51.594;9.928;2022-12-29T05:16:56;0.70;;;0.70;;
5257;SDS011;2651;51.594;9.928;2022-12-29T05:17:57;0.80;;;0.80;;
5257;SDS011;2651;51.594;9.928;2022-12-29T05:18:59;2.50;;;0.90;;
5257;SDS011;2651;51.594;9.928;2022-12-29T05:20:01;0.80;;;0.80;;
5257;SDS011;2651;51.594;9.928;2022-12-29T05:21:03;1.25;;;0.80;;
5257;SDS011;2651;51.594;9.928;2022-12-29T05:22:05;0.77;;;0.77;;
5257;SDS011;2651;51.594;9.928;2022-12-29T05:23:07;0.95;;;0.80;;
5257;SDS011;2651;51.594;9.928;2022-12-29T05:24:09;1.10;;;1.00;;
5257;SDS011;2651;51.594;9.928;2022-12-29T05:25:11;0.93;;;0.90;;
5257;SDS011;2651;51.594;9.928;2022-12-29T05:26:13;0.75;;;0.75;;
5257;SDS011;2651;51.594;9.928;2022-12-29T05:27:14;1.05;;;0.85;;
5257;SDS011;2651;51.594;9.928;2022-12-29T05:28:17;0.68;;;0.68;;
5257;SDS011;2651;51.594;9.928;2022-12-29T05:29:19;1.02;;;0.90;;
5257;SDS011;2651;51.594;9.928;2022-12-29T05:30:20;0.93;;;0.80;;
5257;SDS011;2651;51.594;9.928;2022-12-29T05:31:22;1.33;;;0.85;;
5257;SDS011;2651;51.594;9.928;2022-12-29T05:32:24;5.70;;;0.90;;
5257;SDS011;2651;51.594;9.928;2022-12-29T05:33:25;0.80;;;0.80;;
5257;SDS011;2651;51.594;9.928;2022-12-29T05:34:27;1.63;;;0.80;;
5257;SDS011;2651;51.594;9.928;2022-12-29T05:35:29;0.70;;;0.70;;
5257;SDS011;2651;51.594;9.928;2022-12-29T05:36:31;0.90;;;0.90;;
5257;SDS011;2651;51.594;9.928;2022-12-29T05:37:38;0.80;;;0.70;;
5257;SDS011;2651;51.594;9.928;2022-12-29T05:38:40;0.70;;;0.70;;
5257;SDS011;2651;51.594;9.928;2022-12-29T05:39:41;0.80;;;0.80;;
5257;SDS011;2651;51.594;9.928;2022-12-29T05:40:43;0.88;;;0.88;;
5257;SDS011;2651;51.594;9.928;2022-12-29T05:41:45;1.58;;;1.00;;
5257;SDS011;2651;51.594;9.928;2022-12-29T05:42:47;0.80;;;0.80;;
5257;SDS011;2651;51.594;9.928;2022-12-29T05:43:48;0.70;;;0.70;;
5257;SDS011;2651;51.594;9.928;2022-12-29T05:44:50;1.35;;;0.90;;
5257;SDS011;2651;51.594;9.928;2022-12-29T05:45:54;0.70;;;0.70;;
5257;SDS011;2651;51.594;9.928;2022-12-29T05:46:57;0.70;;;0.70;;
5257;SDS011;2651;51.594;9.928;2022-12-29T05:47:59;0.70;;;0.70;;
5257;SDS011;2651;51.594;9.928;2022-12-29T05:49:00;1.13;;;0.80;;
5257;SDS011;2651;51.594;9.928;2022-12-29T05:50:02;0.70;;;0.70;;
5257;SDS011;2651;51.594;9.928;2022-12-29T05:51:04;1.70;;;0.80;;
5257;SDS011;2651;51.594;9.928;2022-12-29T05:52:06;0.73;;;0.73;;
5257;SDS011;2651;51.594;9.928;2022-12-29T05:53:08;0.90;;;0.70;;
5257;SDS011;2651;51.594;9.928;2022-12-29T05:54:10;0.93;;;0.73;;
5257;SDS011;2651;51.594;9.928;2022-12-29T05:55:12;1.00;;;0.70;;
5257;SDS011;2651;51.594;9.928;2022-12-29T05:56:14;0.75;;;0.75;;
5257;SDS011;2651;51.594;9.928;2022-12-29T05:57:16;1.50;;;1.00;;
5257;SDS011;2651;51.594;9.928;2022-12-29T05:58:20;0.88;;;0.88;;
5257;SDS011;2651;51.594;9.928;2022-12-29T05:59:22;0.80;;;0.80;;
5257;SDS011;2651;51.594;9.928;2022-12-29T06:00:26;0.63;;;0.63;;
5257;SDS011;2651;51.594;9.928;2022-12-29T06:01:28;1.25;;;1.00;;
5257;SDS011;2651;51.594;9.928;2022-12-29T06:02:33;1.40;;;1.30;;
5257;SDS011;2651;51.594;9.928;2022-12-29T06:03:35;2.45;;;0.70;;
5257;SDS011;2651;51.594;9.928;2022-12-29T06:04:39;0.90;;;0.90;;
5257;SDS011;2651;51.594;9.928;2022-12-29T06:05:41;0.98;;;0.90;;
5257;SDS011;2651;51.594;9.928;2022-12-29T06:06:43;1.77;;;0.90;;
5257;SDS011;2651;51.594;9.928;2022-12-29T06:07:45;2.35;;;0.70;;
5257;SDS011;2651;51.594;9.928;2022-12-29T06:08:47;0.80;;;0.80;;
5257;SDS011;2651;51.594;9.928;2022-12-29T06:09:48;0.68;;;0.68;;
5257;SDS011;2651;51.594;9.928;2022-12-29T06:10:50;1.35;;;0.70;;
5257;SDS011;2651;51.594;9.928;2022-12-29T06:11:52;1.95;;;0.80;;
5257;SDS011;2651;51.594;9.928;2022-12-29T06:12:53;0.80;;;0.80;;
5257;SDS011;2651;51.594;9.928;2022-12-29T06:13:55;0.70;;;0.70;;
5257;SDS011;2651;51.594;9.928;2022-12-29T06:14:57;0.90;;;0.90;;
5257;SDS011;2651;51.594;9.928;2022-12-29T06:15:58;0.80;;;0.80;;
5257;SDS011;2651;51.594;9.928;2022-12-29T06:17:00;1.40;;;0.85;;
5257;SDS011;2651;51.594;9.928;2022-12-29T06:18:02;1.63;;;0.63;;
5257;SDS011;2651;51.594;9.928;2022-12-29T06:19:04;0.90;;;0.90;;
5257;SDS011;2651;51.594;9.928;2022-12-29T06:20:06;0.75;;;0.75;;
5257;SDS011;2651;51.594;9.928;2022-12-29T06:21:08;1.35;;;0.80;;
5257;SDS011;2651;51.594;9.928;2022-12-29T06:22:10;2.05;;;0.60;;
5257;SDS011;2651;51.594;9.928;2022-12-29T06:23:13;1.25;;;0.73;;
5257;SDS011;2651;51.594;9.928;2022-12-29T06:24:15;1.42;;;0.90;;
5257;SDS011;2651;51.594;9.928;2022-12-29T06:25:17;0.60;;;0.60;;
5257;SDS011;2651;51.594;9.928;2022-12-29T06:26:19;0.70;;;0.70;;
5257;SDS011;2651;51.594;9.928;2022-12-29T06:27:21;0.70;;;0.70;;
5257;SDS011;2651;51.594;9.928;2022-12-29T06:28:22;0.93;;;0.80;;
5257;SDS011;2651;51.594;9.928;2022-12-29T06:29:24;1.02;;;0.60;;
5257;SDS011;2651;51.594;9.928;2022-12-29T06:30:27;0.50;;;0.50;;
5257;SDS011;2651;51.594;9.928;2022-12-29T06:31:28;0.80;;;0.80;;
5257;SDS011;2651;51.594;9.928;2022-12-29T06:32:31;0.60;;;0.60;;
5257;SDS011;2651;51.594;9.928;2022-12-29T06:33:33;0.65;;;0.65;;
5257;SDS011;2651;51.594;9.928;2022-12-29T06:34:35;0.85;;;0.70;;
5257;SDS011;2651;51.594;9.928;2022-12-29T06:35:37;0.73;;;0.73;;
5257;SDS011;2651;51.594;9.928;2022-12-29T06:36:39;0.70;;;0.70;;
5257;SDS011;2651;51.594;9.928;2022-12-29T06:37:41;0.60;;;0.60;;
5257;SDS011;2651;51.594;9.928;2022-12-29T06:38:44;0.70;;;0.70;;
5257;SDS011;2651;51.594;9.928;2022-12-29T06:39:46;0.95;;;0.85;;
5257;SDS011;2651;51.594;9.928;2022-12-29T06:40:47;1.30;;;0.80;;
5257;SDS011;2651;51.594;9.928;2022-12-29T06:41:51;2.30;;;0.70;;
5257;SDS011;2651;51.594;9.928;2022-12-29T06:42:54;0.75;;;0.70;;
5257;SDS011;2651;51.594;9.928;2022-12-29T06:43:56;4.63;;;0.90;;
5257;SDS011;2651;51.594;9.928;2022-12-29T06:44:57;2.10;;;0.70;;
5257;SDS011;2651;51.594;9.928;2022-12-29T06:46:01;0.60;;;0.60;;
5257;SDS011;2651;51.594;9.928;2022-12-29T06:47:03;0.82;;;0.65;;
5257;SDS011;2651;51.594;9.928;2022-12-29T06:48:05;0.77;;;0.77;;
5257;SDS011;2651;51.594;9.928;2022-12-29T06:49:07;0.80;;;0.80;;
5257;SDS011;2651;51.594;9.928;2022-12-29T06:50:08;0.80;;;0.80;;
5257;SDS011;2651;51.594;9.928;2022-12-29T06:51:10;1.90;;;0.70;;
5257;SDS011;2651;51.594;9.928;2022-12-29T06:52:12;0.68;;;0.68;;
5257;SDS011;2651;51.594;9.928;2022-12-29T06:53:14;0.60;;;0.60;;
5257;SDS011;2651;51.594;9.928;2022-12-29T06:54:15;2.05;;;0.50;;
5257;SDS011;2651;51.594;9.928;2022-12-29T06:55:17;0.88;;;0.60;;
5257;SDS011;2651;51.594;9.928;2022-12-29T06:56:19;1.17;;;0.70;;
5257;SDS011;2651;51.594;9.928;2022-12-29T06:57:21;0.80;;;0.80;;
5257;SDS011;2651;51.594;9.928;2022-12-29T06:58:23;3.60;;;0.70;;
5257;SDS011;2651;51.594;9.928;2022-12-29T06:59:25;0.70;;;0.70;;
5257;SDS011;2651;51.594;9.928;2022-12-29T07:00:27;1.02;;;0.80;;
5257;SDS011;2651;51.594;9.928;2022-12-29T07:01:29;0.93;;;0.82;;
5257;SDS011;2651;51.594;9.928;2022-12-29T07:02:31;1.80;;;0.70;;
5257;SDS011;2651;51.594;9.928;2022-12-29T07:03:32;0.80;;;0.80;;
5257;SDS011;2651;51.594;9.928;2022-12-29T07:04:36;0.80;;;0.80;;
5257;SDS011;2651;51.594;9.928;2022-12-29T07:05:38;0.80;;;0.80;;
5257;SDS011;2651;51.594;9.928;2022-12-29T07:06:40;0.55;;;0.55;;
5257;SDS011;2651;51.594;9.928;2022-12-29T07:07:41;0.80;;;0.80;;
5257;SDS011;2651;51.594;9.928;2022-12-29T07:08:43;0.70;;;0.70;;
5257;SDS011;2651;51.594;9.928;2022-12-29T07:09:45;3.03;;;0.80;;
5257;SDS011;2651;51.594;9.928;2022-12-29T07:10:47;0.70;;;0.70;;
5257;SDS011;2651;51.594;9.928;2022-12-29T07:11:49;0.70;;;0.70;;